Terminal Aerodrome Forecast
Issued by NWS Quad Cities IA IL

Home | Current Version | Previous Version | Text Only | Print | Product List | Glossary On
Versions: 1 2 3 4 5 6 7 8 9 10 11 12 13 14 15 16 17 18 19 20 21 22
000
FTUS43 KDVN 270520
TAFMLI
TAF
KMLI 270520Z 2706/2806 25004KT P6SM SCT035 BKN100
     FM271000 25007KT 5SM BR BKN025
     FM271500 28008KT P6SM SCT035
     FM272300 23004KT P6SM SKC=

USA.gov is the U.S. government's official web portal to all federal, state and local government web resources and services.